createdAt,value
2019-03-01T00:01:43.808Z,94.43
2019-03-01T00:06:55.828Z,85.93
2019-03-01T00:09:33.818Z,86.40
2019-03-01T00:12:22.796Z,96.93
2019-03-01T00:14:51.976Z,83.40
2019-03-01T00:17:21.475Z,90.13
2019-03-01T00:25:05.978Z,85.43
2019-03-01T00:27:54.712Z,94.60
2019-03-01T00:30:40.112Z,85.87
2019-03-01T00:33:30.133Z,88.60
2019-03-01T00:36:14.869Z,90.37
2019-03-01T00:38:55.815Z,89.80
2019-03-01T00:41:40.479Z,94.57
2019-03-01T00:54:14.763Z,90.77
2019-03-01T00:59:14.388Z,86.40
2019-03-01T01:01:44.815Z,100.93
2019-03-01T01:04:15.659Z,91.13
2019-03-01T01:09:15.672Z,107.30
2019-03-01T01:11:45.810Z,91.03
2019-03-01T01:14:16.528Z,92.23
2019-03-01T01:16:45.416Z,106.57
2019-03-01T01:19:15.732Z,111.53
2019-03-01T01:21:44.539Z,104.80
2019-03-01T01:24:15.375Z,90.17
2019-03-01T01:26:44.762Z,108.50
2019-03-01T01:29:14.682Z,100.13
2019-03-01T01:34:13.787Z,90.57
2019-03-01T01:36:44.528Z,89.40
2019-03-01T01:39:14.859Z,82.20
2019-03-01T01:41:44.986Z,91.20
2019-03-01T01:44:15.186Z,89.70
2019-03-01T01:46:45.326Z,90.63
2019-03-01T01:49:16.261Z,79.47
2019-03-01T01:51:45.857Z,77.70
2019-03-01T01:54:16.107Z,80.33
2019-03-01T01:56:46.133Z,74.10
2019-03-01T02:09:23.976Z,69.97
2019-03-01T02:11:53.871Z,73.63
2019-03-01T02:14:24.303Z,70.20
2019-03-01T02:16:55.047Z,79.17
2019-03-01T02:19:25.958Z,74.50
2019-03-01T02:21:55.478Z,65.50
2019-03-01T02:24:26.097Z,76.90
2019-03-01T02:27:15.467Z,67.40
2019-03-01T02:29:45.907Z,68.50
2019-03-01T02:32:16.109Z,79.03
2019-03-01T02:34:45.951Z,68.80
2019-03-01T02:37:16.370Z,77.83
2019-03-01T02:42:15.884Z,75.17
2019-03-01T02:44:45.683Z,70.67
2019-03-01T02:47:16.013Z,72.53
2019-03-01T02:49:45.718Z,77.17
2019-03-01T02:52:15.863Z,64.77
2019-03-01T02:54:45.864Z,75.20
2019-03-01T02:57:15.893Z,66.27
2019-03-01T02:59:45.796Z,65.13
2019-03-01T03:02:15.817Z,72.60
2019-03-01T03:04:46.735Z,80.33
2019-03-01T03:07:35.516Z,78.70
2019-03-01T03:10:06.864Z,88.07
2019-03-01T03:12:36.878Z,82.23
2019-03-01T03:15:07.591Z,87.03
2019-03-01T03:17:37.833Z,90.03
2019-03-01T03:20:08.350Z,82.60
2019-03-01T03:22:38.048Z,81.30
2019-03-01T03:25:08.725Z,89.23
2019-03-01T03:27:38.700Z,97.40
2019-03-01T03:30:09.848Z,93.87
2019-03-01T03:32:40.596Z,88.77
2019-03-01T03:35:10.803Z,97.40
2019-03-01T03:37:40.716Z,103.77
2019-03-01T03:40:11.360Z,89.53
2019-03-01T03:42:41.257Z,85.57
2019-03-01T03:45:11.476Z,104.80
2019-03-01T03:47:41.910Z,100.13
2019-03-01T03:50:12.229Z,87.97
2019-03-01T03:52:42.649Z,98.33
2019-03-01T03:55:13.913Z,88.50
2019-03-01T03:57:44.752Z,91.97
2019-03-01T04:00:16.110Z,87.63
2019-03-01T04:02:46.301Z,89.83
2019-03-01T04:05:17.056Z,77.03
2019-03-01T04:07:47.525Z,75.53
2019-03-01T04:10:18.117Z,90.07
2019-03-01T04:12:48.335Z,89.70
2019-03-01T04:15:19.373Z,96.73
2019-03-01T04:20:18.802Z,91.67
2019-03-01T04:22:49.425Z,79.37
2019-03-01T04:25:20.156Z,90.97
2019-03-01T04:27:50.461Z,87.33
2019-03-01T04:30:21.710Z,82.60
2019-03-01T04:32:50.923Z,105.23
2019-03-01T04:35:21.872Z,83.17
2019-03-01T04:40:20.869Z,84.30
2019-03-01T04:42:49.739Z,98.50
2019-03-01T04:45:20.680Z,83.67
2019-03-01T04:50:21.956Z,87.63
2019-03-01T04:52:51.068Z,86.30
2019-03-01T04:55:23.815Z,87.07
2019-03-01T05:30:19.668Z,87.67
2019-03-01T05:32:49.453Z,93.93
2019-03-01T05:35:19.672Z,86.50
2019-03-01T05:40:20.017Z,76.50
2019-03-01T05:45:20.267Z,103.47
2019-03-01T05:50:18.954Z,86.93
2019-03-01T05:52:49.154Z,89.27
2019-03-01T05:55:19.498Z,90.47
2019-03-01T05:58:16.182Z,95.13
2019-03-01T06:00:40.325Z,91.93
2019-03-01T06:03:29.483Z,85.73
2019-03-01T06:05:59.706Z,86.97
2019-03-01T06:08:34.240Z,80.33
2019-03-01T06:11:16.557Z,80.70
2019-03-01T06:14:01.517Z,122.87
2019-03-01T06:16:50.376Z,107.60
2019-03-01T06:19:30.517Z,97.97
2019-03-01T06:22:19.676Z,92.93
2019-03-01T06:24:58.516Z,96.23
2019-03-01T06:27:43.137Z,90.67
2019-03-01T06:30:20.464Z,89.10
2019-03-01T06:38:39.655Z,83.37
2019-03-01T06:41:32.191Z,90.87
2019-03-01T06:44:10.916Z,80.33
2019-03-01T06:46:59.466Z,92.03
2019-03-01T06:49:48.426Z,77.13
2019-03-01T06:52:18.975Z,81.80
2019-03-01T06:54:47.747Z,95.83
2019-03-01T06:57:17.246Z,91.97
2019-03-01T06:59:46.035Z,89.33
2019-03-01T07:02:18.816Z,75.50
2019-03-01T07:04:47.705Z,79.07
2019-03-01T07:07:16.495Z,78.27
2019-03-01T07:09:46.203Z,73.47
2019-03-01T07:19:42.687Z,78.87
2019-03-01T07:22:12.706Z,85.73
2019-03-01T07:24:42.826Z,87.57
2019-03-01T07:27:12.856Z,85.87
2019-03-01T07:29:43.366Z,80.40
2019-03-01T07:32:13.917Z,71.57
2019-03-01T07:34:45.045Z,89.27
2019-03-01T07:42:14.117Z,68.20
2019-03-01T07:44:43.367Z,77.77
2019-03-01T07:47:13.496Z,79.53
2019-03-01T07:52:12.696Z,86.90
2019-03-01T07:54:42.836Z,82.03
2019-03-01T07:57:14.750Z,88.03
2019-03-01T07:59:44.803Z,79.10
2019-03-01T08:07:12.585Z,76.40
2019-03-01T08:09:44.755Z,70.43
2019-03-01T08:12:14.882Z,75.17
2019-03-01T08:17:14.416Z,74.80
2019-03-01T08:19:45.703Z,75.03
2019-03-01T08:27:14.563Z,68.83
2019-03-01T08:29:44.795Z,74.43
2019-03-01T08:32:15.141Z,73.47
2019-03-01T08:34:44.518Z,69.53
2019-03-01T08:37:17.654Z,73.00
2019-03-01T08:42:22.137Z,68.87
2019-03-01T08:44:50.827Z,64.97
2019-03-01T08:47:24.431Z,66.33
2019-03-01T08:49:51.586Z,65.03
2019-03-01T08:52:20.147Z,69.33
2019-03-01T09:07:14.728Z,62.97
2019-03-01T09:09:44.437Z,63.40
2019-03-01T09:12:14.866Z,51.50
2019-03-01T09:14:43.547Z,62.77
2019-03-01T09:17:13.666Z,60.43
2019-03-01T09:22:12.466Z,52.83
2019-03-01T09:24:42.388Z,53.37
2019-03-01T09:27:12.402Z,49.07
2019-03-01T09:29:42.369Z,46.53
2019-03-01T09:32:12.436Z,59.27
2019-03-01T09:34:42.657Z,62.27
2019-03-01T09:37:13.116Z,53.93
2019-03-01T09:39:43.001Z,48.93
2019-03-01T09:42:15.617Z,47.20
2019-03-01T09:44:44.767Z,51.37
2019-03-01T09:47:15.501Z,51.83
2019-03-01T09:49:45.516Z,50.60
2019-03-01T09:52:15.736Z,54.47
2019-03-01T09:54:45.777Z,56.70
2019-03-01T09:57:16.466Z,60.33
2019-03-01T10:02:15.802Z,50.47
2019-03-01T10:04:45.637Z,52.90
2019-03-01T10:07:15.637Z,52.67
2019-03-01T10:09:46.571Z,58.80
2019-03-01T10:12:16.796Z,49.73
2019-03-01T10:14:45.687Z,64.53
2019-03-01T10:17:15.905Z,53.03
2019-03-01T10:22:14.707Z,57.20
2019-03-01T10:24:44.517Z,58.80
2019-03-01T10:27:14.736Z,57.83
2019-03-01T10:29:44.871Z,55.80
2019-03-01T10:32:14.877Z,55.00
2019-03-01T10:34:45.017Z,63.37
2019-03-01T10:37:15.217Z,53.97
2019-03-01T10:39:44.826Z,54.53
2019-03-01T10:42:15.457Z,53.13
2019-03-01T10:44:45.673Z,58.47
2019-03-01T10:47:16.306Z,58.87
2019-03-01T10:49:46.736Z,56.37
2019-03-01T10:52:17.493Z,50.70
2019-03-01T10:54:47.796Z,53.80
2019-03-01T10:57:19.856Z,45.33
2019-03-01T10:59:48.858Z,58.80
2019-03-01T11:02:19.618Z,51.93
2019-03-01T11:04:48.796Z,48.33
2019-03-01T11:07:19.720Z,46.50
2019-03-01T11:09:48.707Z,47.63
2019-03-01T11:12:19.346Z,48.77
2019-03-01T11:17:18.756Z,54.07
2019-03-01T11:19:48.671Z,48.97
2019-03-01T11:22:18.794Z,46.77
2019-03-01T11:24:48.716Z,45.17
2019-03-01T11:27:19.847Z,50.63
2019-03-01T11:29:48.856Z,54.37
2019-03-01T11:32:18.961Z,49.70
2019-03-01T11:37:18.083Z,48.53
2019-03-01T11:39:48.089Z,52.73
2019-03-01T11:42:19.436Z,103.57
2019-03-01T11:44:49.967Z,56.63
2019-03-01T11:47:20.516Z,56.07
2019-03-01T11:49:49.487Z,45.87
2019-03-01T11:52:19.706Z,52.73
2019-03-01T11:57:18.817Z,58.30
2019-03-01T11:59:49.036Z,53.07
2019-03-01T12:07:19.086Z,53.30
2019-03-01T12:09:49.122Z,51.00
2019-03-01T12:12:19.624Z,55.97
2019-03-01T12:14:56.107Z,60.37
2019-03-01T12:29:49.753Z,48.20
2019-03-01T12:32:19.767Z,54.40
2019-03-01T12:37:18.770Z,42.60
2019-03-01T12:39:49.116Z,47.37
2019-03-01T12:49:49.467Z,48.90
2019-03-01T12:52:19.487Z,50.17
2019-03-01T12:57:19.117Z,50.10
2019-03-01T12:59:49.431Z,43.93
2019-03-01T13:02:20.886Z,38.93
2019-03-01T13:04:53.166Z,43.20
2019-03-01T13:07:21.636Z,42.87
2019-03-01T13:12:32.727Z,49.00
2019-03-01T13:15:03.768Z,46.83
2019-03-01T13:17:37.315Z,46.27
2019-03-01T13:20:07.487Z,42.37
2019-03-01T13:22:38.839Z,39.13
2019-03-01T13:25:09.173Z,46.53
2019-03-01T13:27:39.487Z,45.77
2019-03-01T13:30:11.864Z,43.07
2019-03-01T13:32:42.481Z,60.60
2019-03-01T13:35:16.919Z,47.37
2019-03-01T13:37:48.770Z,57.27
2019-03-01T13:40:20.812Z,53.30
2019-03-01T14:00:22.187Z,63.20
2019-03-01T14:02:54.263Z,67.93
2019-03-01T14:05:26.827Z,69.17
2019-03-01T14:12:52.587Z,67.97
2019-03-01T14:22:53.667Z,71.57
2019-03-01T14:25:22.665Z,70.60
2019-03-01T14:32:56.975Z,74.57
2019-03-01T14:35:25.869Z,77.23
2019-03-01T14:37:55.248Z,83.97
2019-03-01T14:43:01.277Z,82.73
2019-03-01T14:45:30.372Z,85.43
2019-03-01T14:47:59.877Z,85.67
2019-03-01T15:00:31.809Z,83.03
2019-03-01T15:03:22.501Z,94.63
2019-03-01T15:11:04.393Z,100.17
2019-03-01T15:13:34.811Z,89.87
2019-03-01T15:16:12.452Z,83.37
2019-03-01T15:18:43.905Z,81.07
2019-03-01T15:21:16.788Z,82.30
2019-03-01T15:24:00.098Z,88.53
2019-03-01T15:26:30.759Z,90.10
2019-03-01T15:31:32.935Z,92.10
2019-03-01T15:34:05.505Z,91.97
2019-03-01T16:06:41.450Z,79.60
2019-03-01T16:09:17.718Z,88.63
2019-03-01T16:11:47.527Z,78.33
2019-03-01T16:14:21.069Z,87.33
2019-03-01T16:16:52.679Z,88.67
2019-03-01T16:19:23.315Z,95.27
2019-03-01T16:21:53.838Z,104.90
2019-03-01T16:24:28.463Z,114.07
2019-03-01T16:27:03.120Z,95.57
2019-03-01T16:47:08.842Z,74.57
2019-03-01T16:49:39.593Z,76.90
2019-03-01T16:52:21.133Z,76.90
2019-03-01T16:54:54.813Z,65.63
2019-03-01T16:57:31.967Z,71.20
2019-03-01T17:10:19.248Z,55.33
2019-03-01T17:12:51.757Z,61.55
2019-03-01T17:15:21.937Z,66.73
2019-03-01T17:17:55.648Z,53.10
2019-03-01T17:20:28.227Z,60.63
2019-03-01T17:23:05.400Z,66.77
2019-03-01T17:38:12.668Z,61.53
2019-03-01T17:40:48.728Z,56.20
2019-03-01T17:43:21.917Z,55.60
2019-03-01T17:45:54.421Z,58.53
2019-03-01T17:48:33.014Z,54.73
2019-03-01T17:51:05.396Z,64.87
2019-03-01T17:58:41.677Z,73.20
2019-03-01T18:01:16.002Z,68.87
2019-03-01T18:03:50.020Z,78.83
2019-03-01T18:06:32.623Z,107.17
2019-03-01T18:09:07.566Z,83.27
2019-03-01T18:14:18.231Z,71.53
2019-03-01T18:16:50.731Z,86.83
2019-03-01T18:19:23.803Z,75.17
2019-03-01T18:21:55.864Z,119.57
2019-03-01T18:24:28.114Z,120.00
2019-03-01T18:27:03.590Z,125.83
2019-03-01T18:29:38.997Z,106.60
2019-03-01T18:32:10.987Z,103.40
2019-03-01T18:47:17.427Z,345.33
2019-03-01T18:49:51.514Z,444.07
2019-03-01T18:52:25.663Z,483.30
2019-03-01T18:55:03.559Z,352.37
2019-03-01T18:57:39.566Z,276.17
2019-03-01T19:00:17.618Z,533.33
2019-03-01T19:02:50.154Z,315.50
2019-03-01T19:05:22.669Z,423.13
2019-03-01T19:08:04.381Z,448.73
2019-03-01T19:10:38.018Z,401.30
2019-03-01T19:15:48.023Z,141.13
2019-03-01T19:18:19.988Z,110.73
2019-03-01T19:20:53.999Z,164.17
2019-03-01T19:23:32.448Z,390.87
2019-03-01T19:26:06.727Z,138.47
2019-03-01T19:28:42.129Z,145.60
2019-03-01T19:33:51.018Z,95.60
2019-03-01T19:36:24.168Z,76.20
2019-03-01T19:39:01.582Z,118.57
2019-03-01T19:41:35.500Z,62.37
2019-03-01T19:44:10.638Z,67.50
2019-03-01T19:46:47.701Z,58.93
2019-03-01T19:49:20.501Z,85.67
2019-03-01T19:51:50.513Z,89.00
2019-03-01T19:54:23.299Z,84.53
2019-03-01T19:56:57.769Z,69.20
2019-03-01T19:59:29.479Z,83.50
2019-03-01T20:02:01.848Z,69.57
2019-03-01T20:04:34.008Z,68.33
2019-03-01T20:07:07.708Z,73.33
2019-03-01T20:09:43.568Z,78.37
2019-03-01T20:12:14.818Z,74.73
2019-03-01T20:22:22.061Z,89.97
2019-03-01T20:24:54.948Z,80.33
2019-03-01T20:27:25.672Z,73.43
2019-03-01T20:29:55.705Z,72.50
2019-03-01T20:32:26.548Z,76.50
2019-03-01T20:34:59.317Z,109.47
2019-03-01T20:37:30.860Z,79.97
2019-03-01T20:40:06.714Z,71.67
2019-03-01T20:42:40.517Z,66.10
2019-03-01T21:10:21.234Z,91.90
2019-03-01T21:12:50.839Z,94.77
2019-03-01T21:15:26.392Z,109.40
2019-03-01T21:17:58.847Z,86.23
2019-03-01T21:20:32.666Z,78.60
2019-03-01T21:23:04.279Z,82.13
2019-03-01T21:25:39.718Z,73.90
2019-03-01T21:28:11.424Z,84.10
2019-03-01T21:33:16.807Z,77.50
2019-03-01T21:35:51.158Z,92.23
2019-03-01T21:38:23.572Z,104.27
2019-03-01T21:40:52.781Z,106.37
2019-03-01T21:43:27.122Z,100.47
2019-03-01T21:48:28.554Z,102.07
2019-03-01T21:51:01.127Z,86.37
2019-03-01T21:53:31.456Z,85.50
2019-03-01T21:56:04.570Z,80.50
2019-03-01T21:58:34.994Z,87.30
2019-03-01T22:01:07.025Z,151.50
2019-03-01T22:03:35.840Z,122.23
2019-03-01T22:06:06.255Z,98.83
2019-03-01T22:08:35.256Z,153.60
2019-03-01T22:11:05.884Z,113.93
2019-03-01T22:13:35.755Z,108.23
2019-03-01T22:16:06.844Z,84.67
2019-03-01T22:18:37.371Z,119.90
2019-03-01T22:21:08.508Z,131.60
2019-03-01T22:23:39.125Z,130.87
2019-03-01T22:26:09.626Z,139.90
2019-03-01T22:28:41.523Z,145.33
2019-03-01T22:31:22.080Z,115.17
2019-03-01T22:36:49.518Z,191.57
2019-03-01T22:39:28.795Z,306.33
2019-03-01T22:42:01.891Z,424.27
2019-03-01T22:44:33.315Z,336.00
2019-03-01T23:17:02.843Z,128.97
2019-03-01T23:19:31.715Z,170.03
2019-03-01T23:22:01.735Z,141.93
2019-03-01T23:24:34.904Z,160.10
2019-03-01T23:27:03.518Z,146.13
2019-03-01T23:29:32.414Z,166.17
2019-03-01T23:32:02.527Z,156.03
2019-03-01T23:37:03.558Z,135.50
2019-03-01T23:39:31.755Z,132.67
2019-03-01T23:42:01.869Z,125.67
2019-03-01T23:47:02.800Z,118.17
2019-03-01T23:52:01.717Z,129.30
2019-03-01T23:54:32.126Z,122.57
2019-03-01T23:57:05.669Z,115.90
2019-03-01T23:59:32.589Z,116.07
